SBSM/RIA METAR and TAF weather

Enter ICAO airport designator
Station Type Date Time Source
SBSM METAR 2020/09/30 22:00 UTC NOAA

SBSM 302200Z 11009KT CAVOK 25/23 Q1005


Station Type Date Time Source
SBSM Decoded METAR 2020/09/30 22:00 UTC NOAA

Santa Maria Aero-Porto , Brazil (SBSM) 29-43S 053-42W
Sep 30, 2020 - 06:00 PM EDT / 2020.09.30 2200 UTC
Wind: from the ESE (110 degrees) at 10 MPH (9 KT):0
Visibility: greater than 7 mile(s):0
Temperature: 77 F (25 C)
Dew Point: 73 F (23 C)
Relative Humidity: 88%
Pressure (altimeter): 29.68 in. Hg (1005 hPa)
ob: SBSM 302200Z 11009KT CAVOK 25/23 Q1005
cycle: 22

Station Type Date Time Source
SBSM TAF 2020/10/22 00:27 UTC NOAA

TAF SBSM 212100Z 2200/2212 12008KT 8000 SCT020 TN19/2205Z TX25/2211Z
BECMG 2203/2205 BKN015 PROB30 2208/2210 4000 BR BKN008
RMK PEI

Example: see airport list